sensor_id;sensor_type;location;lat;lon;timestamp;temperature;humidity
68746;SHT31;73143;45.456;11.064;2024-03-23T00:52:29;13.89;58.82
68746;SHT31;73143;45.456;11.064;2024-03-23T00:55:05;13.85;58.96
68746;SHT31;73143;45.456;11.064;2024-03-23T00:57:42;13.80;59.05
68746;SHT31;73143;45.456;11.064;2024-03-23T01:00:18;13.78;59.11
68746;SHT31;73143;45.456;11.064;2024-03-23T01:02:53;13.76;59.16
68746;SHT31;73143;45.456;11.064;2024-03-23T01:05:29;13.74;59.20
68746;SHT31;73143;45.456;11.064;2024-03-23T01:08:06;13.72;59.20
68746;SHT31;73143;45.456;11.064;2024-03-23T01:10:50;13.72;59.24
68746;SHT31;73143;45.456;11.064;2024-03-23T01:13:30;13.70;59.32
68746;SHT31;73143;45.456;11.064;2024-03-23T01:16:06;13.67;59.41
68746;SHT31;73143;45.456;11.064;2024-03-23T01:18:42;13.65;59.47
68746;SHT31;73143;45.456;11.064;2024-03-23T01:21:18;13.65;59.51
68746;SHT31;73143;45.456;11.064;2024-03-23T01:23:54;13.62;59.52
68746;SHT31;73143;45.456;11.064;2024-03-23T01:26:29;13.62;59.50
68746;SHT31;73143;45.456;11.064;2024-03-23T01:29:07;13.61;59.54
68746;SHT31;73143;45.456;11.064;2024-03-23T01:31:43;13.62;59.51
68746;SHT31;73143;45.456;11.064;2024-03-23T01:34:18;13.61;59.51
68746;SHT31;73143;45.456;11.064;2024-03-23T01:36:54;13.58;59.61
68746;SHT31;73143;45.456;11.064;2024-03-23T01:39:28;13.56;59.68
68746;SHT31;73143;45.456;11.064;2024-03-23T01:42:04;13.54;59.72
68746;SHT31;73143;45.456;11.064;2024-03-23T01:44:41;13.52;59.77
68746;SHT31;73143;45.456;11.064;2024-03-23T01:47:17;13.50;59.79
68746;SHT31;73143;45.456;11.064;2024-03-23T01:49:53;13.50;59.82
68746;SHT31;73143;45.456;11.064;2024-03-23T01:52:30;13.48;59.90
68746;SHT31;73143;45.456;11.064;2024-03-23T01:55:09;13.48;59.91
68746;SHT31;73143;45.456;11.064;2024-03-23T01:57:45;13.47;59.91
68746;SHT31;73143;45.456;11.064;2024-03-23T02:00:21;13.47;59.92
68746;SHT31;73143;45.456;11.064;2024-03-23T02:02:59;13.49;59.86
68746;SHT31;73143;45.456;11.064;2024-03-23T02:05:55;13.49;59.85
68746;SHT31;73143;45.456;11.064;2024-03-23T02:08:31;13.51;59.75
68746;SHT31;73143;45.456;11.064;2024-03-23T02:11:07;13.52;59.70
68746;SHT31;73143;45.456;11.064;2024-03-23T02:13:42;13.51;59.76
68746;SHT31;73143;45.456;11.064;2024-03-23T02:16:18;13.51;59.84
68746;SHT31;73143;45.456;11.064;2024-03-23T02:18:53;13.52;59.90
68746;SHT31;73143;45.456;11.064;2024-03-23T02:21:29;13.51;59.96
68746;SHT31;73143;45.456;11.064;2024-03-23T02:24:05;13.50;60.00
68746;SHT31;73143;45.456;11.064;2024-03-23T02:26:42;13.48;60.06
68746;SHT31;73143;45.456;11.064;2024-03-23T02:29:18;13.47;60.10
68746;SHT31;73143;45.456;11.064;2024-03-23T02:31:53;13.48;60.16
68746;SHT31;73143;45.456;11.064;2024-03-23T02:34:30;13.46;60.20
68746;SHT31;73143;45.456;11.064;2024-03-23T02:37:11;13.44;60.27
68746;SHT31;73143;45.456;11.064;2024-03-23T02:39:46;13.40;60.37
68746;SHT31;73143;45.456;11.064;2024-03-23T02:42:23;13.40;60.43
68746;SHT31;73143;45.456;11.064;2024-03-23T02:44:59;13.39;60.53
68746;SHT31;73143;45.456;11.064;2024-03-23T02:47:35;13.39;60.67
68746;SHT31;73143;45.456;11.064;2024-03-23T02:50:11;13.37;60.73
68746;SHT31;73143;45.456;11.064;2024-03-23T02:52:46;13.36;60.76
68746;SHT31;73143;45.456;11.064;2024-03-23T02:55:22;13.36;60.82
68746;SHT31;73143;45.456;11.064;2024-03-23T02:57:59;13.35;60.92
68746;SHT31;73143;45.456;11.064;2024-03-23T03:00:34;13.37;60.90
68746;SHT31;73143;45.456;11.064;2024-03-23T03:03:10;13.36;60.89
68746;SHT31;73143;45.456;11.064;2024-03-23T03:05:45;13.33;60.92
68746;SHT31;73143;45.456;11.064;2024-03-23T03:08:28;13.34;61.01
68746;SHT31;73143;45.456;11.064;2024-03-23T03:11:03;13.32;61.15
68746;SHT31;73143;45.456;11.064;2024-03-23T03:13:39;13.32;61.04
68746;SHT31;73143;45.456;11.064;2024-03-23T03:16:14;13.28;61.00
68746;SHT31;73143;45.456;11.064;2024-03-23T03:18:50;13.25;61.00
68746;SHT31;73143;45.456;11.064;2024-03-23T03:21:26;13.23;61.11
68746;SHT31;73143;45.456;11.064;2024-03-23T03:24:02;13.22;61.21
68746;SHT31;73143;45.456;11.064;2024-03-23T03:26:40;13.20;61.24
68746;SHT31;73143;45.456;11.064;2024-03-23T03:29:15;13.19;61.29
68746;SHT31;73143;45.456;11.064;2024-03-23T03:31:52;13.15;61.34
68746;SHT31;73143;45.456;11.064;2024-03-23T03:34:28;13.08;61.50
68746;SHT31;73143;45.456;11.064;2024-03-23T03:37:04;13.02;61.68
68746;SHT31;73143;45.456;11.064;2024-03-23T03:39:40;12.95;61.81
68746;SHT31;73143;45.456;11.064;2024-03-23T03:42:16;12.90;61.96
68746;SHT31;73143;45.456;11.064;2024-03-23T03:44:51;12.85;62.01
68746;SHT31;73143;45.456;11.064;2024-03-23T03:47:26;12.81;62.16
68746;SHT31;73143;45.456;11.064;2024-03-23T03:50:02;12.77;62.25
68746;SHT31;73143;45.456;11.064;2024-03-23T03:52:41;12.75;62.35
68746;SHT31;73143;45.456;11.064;2024-03-23T03:55:17;12.74;62.41
68746;SHT31;73143;45.456;11.064;2024-03-23T03:57:52;12.72;62.46
68746;SHT31;73143;45.456;11.064;2024-03-23T04:00:28;12.74;62.45
68746;SHT31;73143;45.456;11.064;2024-03-23T04:03:03;12.73;62.45
68746;SHT31;73143;45.456;11.064;2024-03-23T04:05:39;12.72;62.50
68746;SHT31;73143;45.456;11.064;2024-03-23T04:08:21;12.72;62.50
68746;SHT31;73143;45.456;11.064;2024-03-23T04:10:58;12.74;62.50
68746;SHT31;73143;45.456;11.064;2024-03-23T04:13:34;12.73;62.47
68746;SHT31;73143;45.456;11.064;2024-03-23T04:16:11;12.73;62.50
68746;SHT31;73143;45.456;11.064;2024-03-23T04:18:56;12.72;62.54
68746;SHT31;73143;45.456;11.064;2024-03-23T04:21:32;12.71;62.50
68746;SHT31;73143;45.456;11.064;2024-03-23T04:24:08;12.72;62.40
68746;SHT31;73143;45.456;11.064;2024-03-23T04:26:43;12.73;62.33
68746;SHT31;73143;45.456;11.064;2024-03-23T04:29:19;12.74;62.26
68746;SHT31;73143;45.456;11.064;2024-03-23T04:31:55;12.74;62.23
68746;SHT31;73143;45.456;11.064;2024-03-23T04:34:31;12.76;62.19
68746;SHT31;73143;45.456;11.064;2024-03-23T04:37:07;12.79;62.10
68746;SHT31;73143;45.456;11.064;2024-03-23T04:39:42;12.81;62.05
68746;SHT31;73143;45.456;11.064;2024-03-23T04:42:17;12.82;62.02
68746;SHT31;73143;45.456;11.064;2024-03-23T04:44:55;12.83;61.99
68746;SHT31;73143;45.456;11.064;2024-03-23T04:47:30;12.82;62.05
68746;SHT31;73143;45.456;11.064;2024-03-23T04:50:09;12.81;62.09
68746;SHT31;73143;45.456;11.064;2024-03-23T04:52:44;12.79;62.11
68746;SHT31;73143;45.456;11.064;2024-03-23T04:55:20;12.78;62.18
68746;SHT31;73143;45.456;11.064;2024-03-23T04:57:55;12.75;62.24
68746;SHT31;73143;45.456;11.064;2024-03-23T05:00:32;12.75;62.30
68746;SHT31;73143;45.456;11.064;2024-03-23T05:03:08;12.75;62.31
68746;SHT31;73143;45.456;11.064;2024-03-23T05:05:43;12.75;62.36
68746;SHT31;73143;45.456;11.064;2024-03-23T05:08:18;12.74;62.40
68746;SHT31;73143;45.456;11.064;2024-03-23T05:10:53;12.71;62.47
68746;SHT31;73143;45.456;11.064;2024-03-23T05:13:29;12.69;62.52
68746;SHT31;73143;45.456;11.064;2024-03-23T05:16:05;12.72;62.52
68746;SHT31;73143;45.456;11.064;2024-03-23T05:18:41;12.72;62.50
68746;SHT31;73143;45.456;11.064;2024-03-23T05:21:16;12.71;62.52
68746;SHT31;73143;45.456;11.064;2024-03-23T05:23:53;12.68;62.64
68746;SHT31;73143;45.456;11.064;2024-03-23T05:26:28;12.65;62.74
68746;SHT31;73143;45.456;11.064;2024-03-23T05:29:04;12.64;62.81
68746;SHT31;73143;45.456;11.064;2024-03-23T05:31:41;12.63;62.85
68746;SHT31;73143;45.456;11.064;2024-03-23T05:34:20;12.66;62.84
68746;SHT31;73143;45.456;11.064;2024-03-23T05:36:55;12.68;62.88
68746;SHT31;73143;45.456;11.064;2024-03-23T05:39:35;12.69;62.92
68746;SHT31;73143;45.456;11.064;2024-03-23T05:42:11;12.71;62.92
68746;SHT31;73143;45.456;11.064;2024-03-23T05:44:47;12.78;62.86
68746;SHT31;73143;45.456;11.064;2024-03-23T05:47:23;12.88;62.69
68746;SHT31;73143;45.456;11.064;2024-03-23T05:49:58;12.97;62.56
68746;SHT31;73143;45.456;11.064;2024-03-23T05:52:38;13.04;62.43
68746;SHT31;73143;45.456;11.064;2024-03-23T05:55:14;13.13;62.34
68746;SHT31;73143;45.456;11.064;2024-03-23T05:57:49;13.22;62.16
68746;SHT31;73143;45.456;11.064;2024-03-23T06:00:26;13.30;62.05
68746;SHT31;73143;45.456;11.064;2024-03-23T06:03:01;13.37;62.00
68746;SHT31;73143;45.456;11.064;2024-03-23T06:05:38;13.39;62.00
68746;SHT31;73143;45.456;11.064;2024-03-23T06:08:13;13.41;62.01
68746;SHT31;73143;45.456;11.064;2024-03-23T06:10:49;13.44;61.95
68746;SHT31;73143;45.456;11.064;2024-03-23T06:13:25;13.46;61.94
68746;SHT31;73143;45.456;11.064;2024-03-23T06:16:00;13.48;61.92
68746;SHT31;73143;45.456;11.064;2024-03-23T06:18:39;13.49;61.97
68746;SHT31;73143;45.456;11.064;2024-03-23T06:21:14;13.52;62.01
68746;SHT31;73143;45.456;11.064;2024-03-23T06:23:53;13.54;62.03
68746;SHT31;73143;45.456;11.064;2024-03-23T06:26:28;13.55;62.10
68746;SHT31;73143;45.456;11.064;2024-03-23T06:29:06;13.57;62.17
68746;SHT31;73143;45.456;11.064;2024-03-23T06:31:44;13.63;62.18
68746;SHT31;73143;45.456;11.064;2024-03-23T06:34:25;13.73;62.10
68746;SHT31;73143;45.456;11.064;2024-03-23T06:37:01;13.81;62.12
68746;SHT31;73143;45.456;11.064;2024-03-23T06:39:38;13.90;62.00
68746;SHT31;73143;45.456;11.064;2024-03-23T06:42:14;14.01;62.02
68746;SHT31;73143;45.456;11.064;2024-03-23T06:44:50;14.05;62.50
68746;SHT31;73143;45.456;11.064;2024-03-23T06:47:25;14.09;62.86
68746;SHT31;73143;45.456;11.064;2024-03-23T06:50:01;14.13;62.83
68746;SHT31;73143;45.456;11.064;2024-03-23T06:52:40;14.17;62.77
68746;SHT31;73143;45.456;11.064;2024-03-23T06:55:16;14.23;62.70
68746;SHT31;73143;45.456;11.064;2024-03-23T06:57:53;14.30;62.69
68746;SHT31;73143;45.456;11.064;2024-03-23T07:00:29;14.37;62.74
68746;SHT31;73143;45.456;11.064;2024-03-23T07:03:05;14.45;63.14
68746;SHT31;73143;45.456;11.064;2024-03-23T07:05:42;14.51;63.55
68746;SHT31;73143;45.456;11.064;2024-03-23T07:08:17;14.55;63.96
68746;SHT31;73143;45.456;11.064;2024-03-23T07:10:53;14.58;63.92
68746;SHT31;73143;45.456;11.064;2024-03-23T07:13:28;14.65;63.93
68746;SHT31;73143;45.456;11.064;2024-03-23T07:16:05;14.74;63.93
68746;SHT31;73143;45.456;11.064;2024-03-23T07:18:41;14.87;63.50
68746;SHT31;73143;45.456;11.064;2024-03-23T07:21:20;14.98;63.05
68746;SHT31;73143;45.456;11.064;2024-03-23T07:23:56;15.04;62.30
68746;SHT31;73143;45.456;11.064;2024-03-23T07:26:31;15.09;61.99
68746;SHT31;73143;45.456;11.064;2024-03-23T07:29:06;15.20;62.00
68746;SHT31;73143;45.456;11.064;2024-03-23T07:31:42;15.32;62.08
68746;SHT31;73143;45.456;11.064;2024-03-23T07:34:18;15.42;62.01
68746;SHT31;73143;45.456;11.064;2024-03-23T07:36:55;15.49;61.67
68746;SHT31;73143;45.456;11.064;2024-03-23T07:39:30;15.60;61.68
68746;SHT31;73143;45.456;11.064;2024-03-23T07:42:06;15.74;61.38
68746;SHT31;73143;45.456;11.064;2024-03-23T07:44:41;15.90;61.10
68746;SHT31;73143;45.456;11.064;2024-03-23T07:47:17;16.04;60.69
68746;SHT31;73143;45.456;11.064;2024-03-23T07:49:52;16.17;60.50
68746;SHT31;73143;45.456;11.064;2024-03-23T07:52:29;16.20;60.44
68746;SHT31;73143;45.456;11.064;2024-03-23T07:55:06;16.20;60.48
68746;SHT31;73143;45.456;11.064;2024-03-23T07:57:42;16.29;60.20
68746;SHT31;73143;45.456;11.064;2024-03-23T08:00:18;16.38;59.63
68746;SHT31;73143;45.456;11.064;2024-03-23T08:02:54;16.46;59.28
68746;SHT31;73143;45.456;11.064;2024-03-23T08:05:30;16.52;58.65
68746;SHT31;73143;45.456;11.064;2024-03-23T08:08:06;16.55;57.86
68746;SHT31;73143;45.456;11.064;2024-03-23T08:10:52;16.60;57.99
68746;SHT31;73143;45.456;11.064;2024-03-23T08:13:27;16.66;58.19
68746;SHT31;73143;45.456;11.064;2024-03-23T08:16:04;16.73;58.42
68746;SHT31;73143;45.456;11.064;2024-03-23T08:18:39;16.81;58.56
68746;SHT31;73143;45.456;11.064;2024-03-23T08:21:14;16.87;58.66
68746;SHT31;73143;45.456;11.064;2024-03-23T08:23:49;16.93;58.63
68746;SHT31;73143;45.456;11.064;2024-03-23T08:26:25;16.97;58.35
68746;SHT31;73143;45.456;11.064;2024-03-23T08:29:01;17.00;57.13
68746;SHT31;73143;45.456;11.064;2024-03-23T08:31:36;17.03;56.47
68746;SHT31;73143;45.456;11.064;2024-03-23T08:34:11;17.09;56.14
68746;SHT31;73143;45.456;11.064;2024-03-23T08:36:47;17.15;55.89
68746;SHT31;73143;45.456;11.064;2024-03-23T08:39:23;17.19;56.08
68746;SHT31;73143;45.456;11.064;2024-03-23T08:41:58;17.25;55.71
68746;SHT31;73143;45.456;11.064;2024-03-23T08:44:34;17.30;55.08
68746;SHT31;73143;45.456;11.064;2024-03-23T08:47:12;17.36;55.14
68746;SHT31;73143;45.456;11.064;2024-03-23T08:49:47;17.39;55.39
68746;SHT31;73143;45.456;11.064;2024-03-23T08:52:24;17.40;55.59
68746;SHT31;73143;45.456;11.064;2024-03-23T08:54:59;17.40;55.53
68746;SHT31;73143;45.456;11.064;2024-03-23T08:57:38;17.41;55.55
68746;SHT31;73143;45.456;11.064;2024-03-23T09:00:17;17.44;55.21
68746;SHT31;73143;45.456;11.064;2024-03-23T09:02:55;17.48;55.02
68746;SHT31;73143;45.456;11.064;2024-03-23T09:05:32;17.55;54.81
68746;SHT31;73143;45.456;11.064;2024-03-23T09:08:14;17.62;54.91
68746;SHT31;73143;45.456;11.064;2024-03-23T09:10:50;17.66;55.12
68746;SHT31;73143;45.456;11.064;2024-03-23T09:13:26;17.70;55.27
68746;SHT31;73143;45.456;11.064;2024-03-23T09:16:02;17.73;55.33
68746;SHT31;73143;45.456;11.064;2024-03-23T09:18:40;17.78;55.45
68746;SHT31;73143;45.456;11.064;2024-03-23T09:21:17;17.78;55.08
68746;SHT31;73143;45.456;11.064;2024-03-23T09:23:52;17.78;55.08
68746;SHT31;73143;45.456;11.064;2024-03-23T09:26:28;17.81;54.83
68746;SHT31;73143;45.456;11.064;2024-03-23T09:29:03;17.86;55.06
68746;SHT31;73143;45.456;11.064;2024-03-23T09:31:39;17.90;55.03
68746;SHT31;73143;45.456;11.064;2024-03-23T09:34:14;17.97;54.81
68746;SHT31;73143;45.456;11.064;2024-03-23T09:36:51;18.02;54.61
68746;SHT31;73143;45.456;11.064;2024-03-23T09:39:27;18.06;54.32
68746;SHT31;73143;45.456;11.064;2024-03-23T09:42:02;18.09;54.45
68746;SHT31;73143;45.456;11.064;2024-03-23T09:44:40;18.15;54.45
68746;SHT31;73143;45.456;11.064;2024-03-23T09:47:16;18.21;54.57
68746;SHT31;73143;45.456;11.064;2024-03-23T09:49:53;18.27;54.37
68746;SHT31;73143;45.456;11.064;2024-03-23T09:52:29;18.33;54.18
68746;SHT31;73143;45.456;11.064;2024-03-23T09:55:05;18.40;54.09
68746;SHT31;73143;45.456;11.064;2024-03-23T09:57:43;18.48;54.15
68746;SHT31;73143;45.456;11.064;2024-03-23T10:00:20;18.55;53.95
68746;SHT31;73143;45.456;11.064;2024-03-23T10:02:57;18.58;53.94
68746;SHT31;73143;45.456;11.064;2024-03-23T10:05:35;18.65;54.09
68746;SHT31;73143;45.456;11.064;2024-03-23T10:08:19;18.73;54.12
68746;SHT31;73143;45.456;11.064;2024-03-23T10:10:55;18.82;54.16
68746;SHT31;73143;45.456;11.064;2024-03-23T10:13:43;18.90;54.01
68746;SHT31;73143;45.456;11.064;2024-03-23T10:16:23;18.92;53.42
68746;SHT31;73143;45.456;11.064;2024-03-23T10:18:58;18.91;53.56
68746;SHT31;73143;45.456;11.064;2024-03-23T10:21:34;18.96;53.45
68746;SHT31;73143;45.456;11.064;2024-03-23T10:24:10;19.00;53.49
68746;SHT31;73143;45.456;11.064;2024-03-23T10:26:47;19.08;53.02
68746;SHT31;73143;45.456;11.064;2024-03-23T10:29:31;19.13;52.87
68746;SHT31;73143;45.456;11.064;2024-03-23T10:32:10;19.18;52.72
68746;SHT31;73143;45.456;11.064;2024-03-23T10:34:48;19.27;52.03
68746;SHT31;73143;45.456;11.064;2024-03-23T10:37:23;19.34;51.70
68746;SHT31;73143;45.456;11.064;2024-03-23T10:39:59;19.37;51.50
68746;SHT31;73143;45.456;11.064;2024-03-23T10:42:41;19.43;51.76
68746;SHT31;73143;45.456;11.064;2024-03-23T10:45:18;19.48;51.80
68746;SHT31;73143;45.456;11.064;2024-03-23T10:47:53;19.54;51.70
68746;SHT31;73143;45.456;11.064;2024-03-23T10:50:29;19.62;51.53
68746;SHT31;73143;45.456;11.064;2024-03-23T10:53:06;19.63;51.28
68746;SHT31;73143;45.456;11.064;2024-03-23T10:55:43;19.67;51.40
68746;SHT31;73143;45.456;11.064;2024-03-23T10:58:19;19.75;51.53
68746;SHT31;73143;45.456;11.064;2024-03-23T11:01:04;19.84;51.39
68746;SHT31;73143;45.456;11.064;2024-03-23T11:03:46;19.90;51.11
68746;SHT31;73143;45.456;11.064;2024-03-23T11:06:37;19.96;50.92
68746;SHT31;73143;45.456;11.064;2024-03-23T11:12:28;20.06;50.12
68746;SHT31;73143;45.456;11.064;2024-03-23T11:15:05;20.10;50.38
68746;SHT31;73143;45.456;11.064;2024-03-23T11:17:44;20.17;49.80
68746;SHT31;73143;45.456;11.064;2024-03-23T11:20:39;20.23;49.15
68746;SHT31;73143;45.456;11.064;2024-03-23T11:23:27;20.26;49.03
68746;SHT31;73143;45.456;11.064;2024-03-23T11:26:02;20.31;49.11
68746;SHT31;73143;45.456;11.064;2024-03-23T11:28:44;20.36;49.25
68746;SHT31;73143;45.456;11.064;2024-03-23T11:31:19;20.44;48.74
68746;SHT31;73143;45.456;11.064;2024-03-23T11:34:03;20.50;48.05
68746;SHT31;73143;45.456;11.064;2024-03-23T11:36:40;20.54;48.05
68746;SHT31;73143;45.456;11.064;2024-03-23T11:39:17;20.63;47.96
68746;SHT31;73143;45.456;11.064;2024-03-23T11:41:52;20.69;47.98
68746;SHT31;73143;45.456;11.064;2024-03-23T11:44:28;20.69;47.97
68746;SHT31;73143;45.456;11.064;2024-03-23T11:47:10;20.76;47.96
68746;SHT31;73143;45.456;11.064;2024-03-23T11:49:45;20.78;47.84
68746;SHT31;73143;45.456;11.064;2024-03-23T11:52:24;20.71;47.49
68746;SHT31;73143;45.456;11.064;2024-03-23T11:55:07;20.70;47.62
68746;SHT31;73143;45.456;11.064;2024-03-23T11:57:45;20.68;47.37
68746;SHT31;73143;45.456;11.064;2024-03-23T12:00:23;20.63;46.45
68746;SHT31;73143;45.456;11.064;2024-03-23T12:03:03;20.66;46.10
68746;SHT31;73143;45.456;11.064;2024-03-23T12:05:38;20.76;45.77
68746;SHT31;73143;45.456;11.064;2024-03-23T12:11:11;20.97;44.68
68746;SHT31;73143;45.456;11.064;2024-03-23T12:13:48;21.09;44.95
68746;SHT31;73143;45.456;11.064;2024-03-23T12:16:24;21.19;44.62
68746;SHT31;73143;45.456;11.064;2024-03-23T12:19:04;21.24;44.69
68746;SHT31;73143;45.456;11.064;2024-03-23T12:21:40;21.28;44.44
68746;SHT31;73143;45.456;11.064;2024-03-23T12:24:15;21.30;44.97
68746;SHT31;73143;45.456;11.064;2024-03-23T12:26:51;21.22;45.11
68746;SHT31;73143;45.456;11.064;2024-03-23T12:29:30;21.16;45.15
68746;SHT31;73143;45.456;11.064;2024-03-23T12:32:05;21.20;45.03
68746;SHT31;73143;45.456;11.064;2024-03-23T12:34:43;21.22;44.79
68746;SHT31;73143;45.456;11.064;2024-03-23T12:37:19;21.33;44.91
68746;SHT31;73143;45.456;11.064;2024-03-23T12:39:54;21.44;44.73
68746;SHT31;73143;45.456;11.064;2024-03-23T12:42:30;21.55;44.94
68746;SHT31;73143;45.456;11.064;2024-03-23T12:45:09;21.55;44.75
68746;SHT31;73143;45.456;11.064;2024-03-23T12:47:47;21.52;45.01
68746;SHT31;73143;45.456;11.064;2024-03-23T12:50:23;21.45;44.75
68746;SHT31;73143;45.456;11.064;2024-03-23T12:52:57;21.40;44.70
68746;SHT31;73143;45.456;11.064;2024-03-23T12:55:36;21.37;44.66
68746;SHT31;73143;45.456;11.064;2024-03-23T12:58:11;21.35;44.71
68746;SHT31;73143;45.456;11.064;2024-03-23T13:00:46;21.30;44.95
68746;SHT31;73143;45.456;11.064;2024-03-23T13:03:22;21.24;45.19
68746;SHT31;73143;45.456;11.064;2024-03-23T13:05:59;21.18;45.46
68746;SHT31;73143;45.456;11.064;2024-03-23T13:08:36;21.13;45.52
68746;SHT31;73143;45.456;11.064;2024-03-23T13:11:12;21.08;45.39
68746;SHT31;73143;45.456;11.064;2024-03-23T13:13:49;21.11;45.43
68746;SHT31;73143;45.456;11.064;2024-03-23T13:16:25;21.08;45.47
68746;SHT31;73143;45.456;11.064;2024-03-23T13:19:01;21.03;45.33
68746;SHT31;73143;45.456;11.064;2024-03-23T13:21:36;20.97;45.67
68746;SHT31;73143;45.456;11.064;2024-03-23T13:24:12;20.90;45.71
68746;SHT31;73143;45.456;11.064;2024-03-23T13:26:47;20.84;45.71
68746;SHT31;73143;45.456;11.064;2024-03-23T13:29:24;20.78;45.62
68746;SHT31;73143;45.456;11.064;2024-03-23T13:32:00;20.73;45.74
68746;SHT31;73143;45.456;11.064;2024-03-23T13:34:37;20.69;45.82
68746;SHT31;73143;45.456;11.064;2024-03-23T13:37:14;20.63;45.97
68746;SHT31;73143;45.456;11.064;2024-03-23T13:39:50;20.59;45.96
68746;SHT31;73143;45.456;11.064;2024-03-23T13:42:25;20.58;45.86
68746;SHT31;73143;45.456;11.064;2024-03-23T13:45:02;20.57;45.91
68746;SHT31;73143;45.456;11.064;2024-03-23T13:47:47;20.54;45.99
68746;SHT31;73143;45.456;11.064;2024-03-23T13:50:22;20.52;45.91
68746;SHT31;73143;45.456;11.064;2024-03-23T13:52:58;20.47;46.05
68746;SHT31;73143;45.456;11.064;2024-03-23T13:55:34;20.44;46.21
68746;SHT31;73143;45.456;11.064;2024-03-23T13:58:16;20.42;46.40
68746;SHT31;73143;45.456;11.064;2024-03-23T14:00:52;20.44;46.42
68746;SHT31;73143;45.456;11.064;2024-03-23T14:03:28;20.46;46.46
68746;SHT31;73143;45.456;11.064;2024-03-23T14:06:05;20.54;46.25
68746;SHT31;73143;45.456;11.064;2024-03-23T14:08:42;20.66;45.92
68746;SHT31;73143;45.456;11.064;2024-03-23T14:11:19;20.76;45.97
68746;SHT31;73143;45.456;11.064;2024-03-23T14:13:57;20.86;45.89
68746;SHT31;73143;45.456;11.064;2024-03-23T14:16:32;20.94;45.80
68746;SHT31;73143;45.456;11.064;2024-03-23T14:19:09;21.01;45.59
68746;SHT31;73143;45.456;11.064;2024-03-23T14:21:45;21.08;45.56
68746;SHT31;73143;45.456;11.064;2024-03-23T14:24:20;21.15;45.66
68746;SHT31;73143;45.456;11.064;2024-03-23T14:26:56;21.22;45.80
68746;SHT31;73143;45.456;11.064;2024-03-23T14:29:33;21.27;45.67
68746;SHT31;73143;45.456;11.064;2024-03-23T14:32:09;21.33;45.61
68746;SHT31;73143;45.456;11.064;2024-03-23T14:34:45;21.35;45.35
68746;SHT31;73143;45.456;11.064;2024-03-23T14:37:22;21.36;45.31
68746;SHT31;73143;45.456;11.064;2024-03-23T14:40:00;21.38;45.32
68746;SHT31;73143;45.456;11.064;2024-03-23T14:42:41;21.41;45.40
68746;SHT31;73143;45.456;11.064;2024-03-23T14:45:17;21.42;45.34
68746;SHT31;73143;45.456;11.064;2024-03-23T14:47:54;21.43;45.27
68746;SHT31;73143;45.456;11.064;2024-03-23T14:50:36;21.45;45.30
68746;SHT31;73143;45.456;11.064;2024-03-23T14:53:15;21.47;45.14
68746;SHT31;73143;45.456;11.064;2024-03-23T14:55:51;21.47;44.89
68746;SHT31;73143;45.456;11.064;2024-03-23T14:58:30;21.45;45.10
68746;SHT31;73143;45.456;11.064;2024-03-23T15:01:06;21.43;44.95
68746;SHT31;73143;45.456;11.064;2024-03-23T15:03:43;21.41;45.08
68746;SHT31;73143;45.456;11.064;2024-03-23T15:06:21;21.38;45.17
68746;SHT31;73143;45.456;11.064;2024-03-23T15:08:57;21.36;45.15
68746;SHT31;73143;45.456;11.064;2024-03-23T15:11:36;21.31;45.43
68746;SHT31;73143;45.456;11.064;2024-03-23T15:14:11;21.25;45.60
68746;SHT31;73143;45.456;11.064;2024-03-23T15:16:48;21.22;45.66
68746;SHT31;73143;45.456;11.064;2024-03-23T15:19:24;21.20;45.78
68746;SHT31;73143;45.456;11.064;2024-03-23T15:22:00;21.19;45.87
68746;SHT31;73143;45.456;11.064;2024-03-23T15:24:36;21.11;46.09
68746;SHT31;73143;45.456;11.064;2024-03-23T15:27:12;21.01;46.35
68746;SHT31;73143;45.456;11.064;2024-03-23T15:29:46;20.92;46.34
68746;SHT31;73143;45.456;11.064;2024-03-23T15:32:22;20.81;46.47
68746;SHT31;73143;45.456;11.064;2024-03-23T15:34:59;20.70;46.87
68746;SHT31;73143;45.456;11.064;2024-03-23T15:37:36;20.60;47.12
68746;SHT31;73143;45.456;11.064;2024-03-23T15:40:13;20.52;47.39
68746;SHT31;73143;45.456;11.064;2024-03-23T15:42:50;20.45;47.62
68746;SHT31;73143;45.456;11.064;2024-03-23T15:45:26;20.38;47.66
68746;SHT31;73143;45.456;11.064;2024-03-23T15:48:00;20.32;47.70
68746;SHT31;73143;45.456;11.064;2024-03-23T15:50:38;20.26;47.80
68746;SHT31;73143;45.456;11.064;2024-03-23T15:53:21;20.20;48.05
68746;SHT31;73143;45.456;11.064;2024-03-23T15:55:57;20.17;48.23
68746;SHT31;73143;45.456;11.064;2024-03-23T15:58:34;20.14;48.40
68746;SHT31;73143;45.456;11.064;2024-03-23T16:01:09;20.12;48.64
68746;SHT31;73143;45.456;11.064;2024-03-23T16:03:45;20.08;48.91
68746;SHT31;73143;45.456;11.064;2024-03-23T16:06:22;20.02;49.12
68746;SHT31;73143;45.456;11.064;2024-03-23T16:08:58;19.98;49.37
68746;SHT31;73143;45.456;11.064;2024-03-23T16:11:34;19.95;49.67
68746;SHT31;73143;45.456;11.064;2024-03-23T16:14:10;19.94;49.86
68746;SHT31;73143;45.456;11.064;2024-03-23T16:16:46;19.90;50.11
68746;SHT31;73143;45.456;11.064;2024-03-23T16:19:21;19.84;50.25
68746;SHT31;73143;45.456;11.064;2024-03-23T16:21:57;19.80;50.43
68746;SHT31;73143;45.456;11.064;2024-03-23T16:24:33;19.76;50.68
68746;SHT31;73143;45.456;11.064;2024-03-23T16:27:08;19.73;50.94
68746;SHT31;73143;45.456;11.064;2024-03-23T16:29:43;19.74;51.15
68746;SHT31;73143;45.456;11.064;2024-03-23T16:32:18;19.72;51.36
68746;SHT31;73143;45.456;11.064;2024-03-23T16:35:00;19.73;51.59
68746;SHT31;73143;45.456;11.064;2024-03-23T16:37:38;19.69;51.84
68746;SHT31;73143;45.456;11.064;2024-03-23T16:40:17;19.65;52.07
68746;SHT31;73143;45.456;11.064;2024-03-23T16:42:52;19.58;52.24
68746;SHT31;73143;45.456;11.064;2024-03-23T16:45:28;19.53;52.44
68746;SHT31;73143;45.456;11.064;2024-03-23T16:48:04;19.50;52.60
68746;SHT31;73143;45.456;11.064;2024-03-23T16:50:42;19.47;52.74
68746;SHT31;73143;45.456;11.064;2024-03-23T16:53:18;19.43;52.91
68746;SHT31;73143;45.456;11.064;2024-03-23T16:55:57;19.41;53.08
68746;SHT31;73143;45.456;11.064;2024-03-23T16:58:36;19.36;53.24
68746;SHT31;73143;45.456;11.064;2024-03-23T17:01:12;19.33;53.52
68746;SHT31;73143;45.456;11.064;2024-03-23T17:03:48;19.25;53.73
68746;SHT31;73143;45.456;11.064;2024-03-23T17:06:25;19.19;53.88
68746;SHT31;73143;45.456;11.064;2024-03-23T17:09:00;19.16;54.02
68746;SHT31;73143;45.456;11.064;2024-03-23T17:11:36;19.15;54.23